LFSB METAR :   2017/07/23 12:00 LFSB 231200Z 28009KT 250V320 9999 BKN046 SCT086 21/12 Q1019 NOSIG

TAF  2017/07/23 12:21 TAF TAF LFSB 231100Z 2312/2412 28010KT 9999 BKN050 BECMG 2318/2321 16004KT TEMPO 2403/2412 4000 RA BKN020 SCT040TCU PROB40 TEMPO 2409/2412 27012G22KT 2000 RA SCT040CB